createdAt,value
2024-03-09T00:02:42.679Z,97.50
2024-03-09T00:07:50.974Z,86.80
2024-03-09T00:12:58.745Z,85.90
2024-03-09T00:18:08.959Z,95.60
2024-03-09T00:23:16.281Z,93.10
2024-03-09T00:28:23.659Z,85.70
2024-03-09T00:33:33.731Z,76.80
2024-03-09T00:38:46.464Z,87.70
2024-03-09T00:43:56.240Z,85.80
2024-03-09T00:49:03.449Z,83.30
2024-03-09T00:54:11.542Z,85.70
2024-03-09T00:59:18.766Z,87.00
2024-03-09T01:04:26.442Z,85.10
2024-03-09T01:09:36.802Z,79.90
2024-03-09T01:14:45.313Z,76.30
2024-03-09T01:19:52.895Z,81.60
2024-03-09T01:25:00.118Z,78.80
2024-03-09T01:30:11.424Z,92.60
2024-03-09T01:35:19.389Z,93.70
2024-03-09T01:40:26.521Z,82.90
2024-03-09T01:45:35.982Z,79.40
2024-03-09T01:50:43.418Z,99.40
2024-03-09T01:55:51.548Z,79.00
2024-03-09T02:06:07.385Z,89.40
2024-03-09T02:11:14.613Z,89.30
2024-03-09T02:16:22.647Z,70.40
2024-03-09T02:21:32.517Z,78.60
2024-03-09T02:26:40.771Z,75.50
2024-03-09T02:31:48.199Z,76.80
2024-03-09T02:36:55.787Z,82.80
2024-03-09T02:42:02.879Z,74.10
2024-03-09T02:47:12.605Z,70.30
2024-03-09T02:52:21.597Z,69.50
2024-03-09T02:57:28.856Z,75.10
2024-03-09T03:02:53.842Z,72.60
2024-03-09T03:08:01.006Z,76.80
2024-03-09T03:13:09.594Z,68.90
2024-03-09T03:18:16.791Z,83.80
2024-03-09T03:23:24.074Z,69.00
2024-03-09T03:28:33.879Z,81.60
2024-03-09T03:33:44.961Z,76.50
2024-03-09T03:38:52.731Z,77.60
2024-03-09T03:44:00.203Z,83.70
2024-03-09T03:49:08.063Z,77.40
2024-03-09T03:59:20.921Z,79.10
2024-03-09T04:04:28.336Z,81.30
2024-03-09T04:09:35.615Z,82.40
2024-03-09T04:14:45.057Z,83.50
2024-03-09T04:19:52.439Z,92.90
2024-03-09T04:24:59.555Z,84.20
2024-03-09T04:30:10.720Z,92.00
2024-03-09T04:35:18.153Z,81.70
2024-03-09T04:40:25.588Z,90.60
2024-03-09T04:45:33.212Z,91.00
2024-03-09T04:50:41.966Z,85.30
2024-03-09T04:55:53.019Z,74.10
2024-03-09T05:01:00.458Z,79.90
2024-03-09T05:06:08.277Z,92.80
2024-03-09T05:11:15.539Z,86.70
2024-03-09T05:16:24.649Z,87.40
2024-03-09T05:21:35.365Z,72.80
2024-03-09T05:26:45.819Z,83.60
2024-03-09T05:31:53.255Z,80.90
2024-03-09T05:37:07.817Z,82.80
2024-03-09T05:42:15.229Z,82.50
2024-03-09T05:47:22.436Z,84.80
2024-03-09T05:52:29.726Z,88.70
2024-03-09T05:57:37.369Z,86.70
2024-03-09T06:02:47.510Z,82.50
2024-03-09T06:07:56.361Z,80.80
2024-03-09T06:13:03.880Z,83.70
2024-03-09T06:18:11.206Z,89.30
2024-03-09T06:23:18.617Z,83.30
2024-03-09T06:28:25.756Z,89.80
2024-03-09T06:33:33.571Z,80.80
2024-03-09T06:38:42.541Z,83.80
2024-03-09T06:43:49.790Z,80.00
2024-03-09T06:48:58.678Z,81.00
2024-03-09T06:54:05.937Z,77.20
2024-03-09T06:59:13.628Z,70.50
2024-03-09T07:04:22.580Z,79.30
2024-03-09T07:09:30.691Z,69.20
2024-03-09T07:19:43.583Z,74.10
2024-03-09T07:24:52.709Z,90.30
2024-03-09T07:30:03.202Z,80.20
2024-03-09T07:35:16.957Z,88.00
2024-03-09T07:40:26.096Z,86.10
2024-03-09T07:45:34.368Z,77.90
2024-03-09T07:50:42.670Z,84.10
2024-03-09T07:55:59.374Z,82.70
2024-03-09T08:01:10.741Z,80.90
2024-03-09T08:06:19.989Z,78.80
2024-03-09T08:11:27.371Z,74.90
2024-03-09T08:16:35.329Z,78.20
2024-03-09T08:21:44.021Z,72.10
2024-03-09T08:26:53.542Z,75.90
2024-03-09T08:32:03.322Z,66.40
2024-03-09T08:37:16.772Z,72.90
2024-03-09T08:42:23.974Z,72.60
2024-03-09T08:47:31.352Z,73.80
2024-03-09T08:52:38.790Z,67.10
2024-03-09T08:57:50.452Z,80.40
2024-03-09T09:02:59.439Z,74.10
2024-03-09T09:08:07.704Z,66.30
2024-03-09T09:13:15.310Z,58.70
2024-03-09T09:18:25.024Z,59.10
2024-03-09T09:23:37.824Z,73.60
2024-03-09T09:28:46.230Z,63.60
2024-03-09T09:33:55.152Z,54.90
2024-03-09T09:39:03.065Z,61.90
2024-03-09T09:44:13.256Z,59.60
2024-03-09T09:49:23.337Z,62.00
2024-03-09T09:54:34.539Z,70.00
2024-03-09T09:59:42.935Z,62.60
2024-03-09T10:04:52.445Z,65.90
2024-03-09T10:10:15.439Z,67.90
2024-03-09T10:15:25.711Z,66.50
2024-03-09T10:20:38.767Z,57.70
2024-03-09T10:25:54.157Z,64.20
2024-03-09T10:31:07.562Z,50.60
2024-03-09T10:36:20.906Z,50.00
2024-03-09T10:41:29.968Z,45.50
2024-03-09T10:46:41.176Z,53.00
2024-03-09T10:51:52.118Z,44.60
2024-03-09T10:57:03.302Z,33.10
2024-03-09T11:02:11.183Z,40.40
2024-03-09T11:12:26.038Z,39.80
2024-03-09T11:17:36.823Z,33.90
2024-03-09T11:22:48.860Z,37.20
2024-03-09T11:27:58.114Z,34.40
2024-03-09T11:33:12.425Z,31.80
2024-03-09T11:38:24.303Z,37.00
2024-03-09T11:43:32.009Z,38.30
2024-03-09T11:49:00.165Z,39.10
2024-03-09T11:54:16.325Z,42.20
2024-03-09T11:59:27.432Z,38.40
2024-03-09T12:04:38.269Z,36.10
2024-03-09T12:09:46.951Z,31.40
2024-03-09T12:14:55.978Z,33.50
2024-03-09T12:20:06.518Z,36.30
2024-03-09T12:25:22.846Z,35.60
2024-03-09T12:30:31.380Z,33.50
2024-03-09T12:35:39.057Z,28.70
2024-03-09T12:40:48.876Z,34.40
2024-03-09T12:45:56.951Z,34.70
2024-03-09T12:51:05.761Z,28.10
2024-03-09T12:56:13.191Z,27.90
2024-03-09T13:02:17.744Z,25.90
2024-03-09T13:07:26.477Z,23.80
2024-03-09T13:12:34.317Z,27.40
2024-03-09T13:17:49.998Z,30.60
2024-03-09T13:22:57.799Z,24.10
2024-03-09T13:28:08.218Z,31.70
2024-03-09T13:33:17.155Z,30.20
2024-03-09T13:38:27.735Z,32.90
2024-03-09T13:43:35.457Z,22.40
2024-03-09T13:48:46.097Z,24.40
2024-03-09T14:01:03.531Z,32.70
2024-03-09T14:06:12.577Z,31.60
2024-03-09T14:11:20.070Z,29.60
2024-03-09T14:16:30.601Z,28.40
2024-03-09T14:21:38.293Z,24.00
2024-03-09T14:26:45.853Z,29.00
2024-03-09T14:31:53.236Z,28.00
2024-03-09T14:37:03.984Z,24.10
2024-03-09T14:42:13.338Z,25.50
2024-03-09T14:47:20.570Z,27.10
2024-03-09T14:52:29.277Z,26.40
2024-03-09T14:57:36.449Z,27.20
2024-03-09T15:02:44.343Z,21.20
2024-03-09T15:13:00.244Z,30.20
2024-03-09T15:18:11.541Z,22.90
2024-03-09T15:23:22.720Z,28.00
2024-03-09T15:28:31.994Z,30.10
2024-03-09T15:33:39.908Z,23.20
2024-03-09T15:38:48.035Z,23.50
2024-03-09T15:43:55.869Z,28.80
2024-03-09T15:49:09.289Z,24.40
2024-03-09T15:54:19.570Z,39.00
2024-03-09T15:59:28.422Z,42.30
2024-03-09T16:04:36.137Z,28.80
2024-03-09T16:09:43.672Z,39.40
2024-03-09T16:14:52.746Z,35.90
2024-03-09T16:20:01.250Z,33.30
2024-03-09T16:25:10.677Z,43.90
2024-03-09T16:30:30.026Z,42.80
2024-03-09T16:35:37.463Z,36.60
2024-03-09T16:40:46.258Z,38.60
2024-03-09T16:45:54.925Z,44.50
2024-03-09T16:51:03.025Z,44.40
2024-03-09T16:56:10.553Z,42.20
2024-03-09T17:01:18.119Z,43.20
2024-03-09T17:06:27.016Z,49.80
2024-03-09T17:11:34.527Z,47.70
2024-03-09T17:16:42.295Z,51.10
2024-03-09T17:21:52.283Z,42.90
2024-03-09T17:27:00.691Z,45.80
2024-03-09T17:32:11.656Z,49.60
2024-03-09T17:37:22.185Z,47.80
2024-03-09T17:42:33.446Z,59.40
2024-03-09T17:47:42.076Z,59.40
2024-03-09T17:52:52.430Z,58.30
2024-03-09T17:58:21.830Z,58.20
2024-03-09T18:03:32.751Z,62.30
2024-03-09T18:08:41.687Z,61.20
2024-03-09T18:13:50.054Z,57.90
2024-03-09T18:18:57.988Z,69.90
2024-03-09T18:24:12.228Z,65.80
2024-03-09T18:29:22.386Z,66.70
2024-03-09T18:34:30.092Z,67.30
2024-03-09T18:39:39.218Z,62.80
2024-03-09T18:44:47.199Z,61.60
2024-03-09T18:49:54.789Z,57.10
2024-03-09T18:55:02.525Z,58.60
2024-03-09T19:00:17.302Z,69.00
2024-03-09T19:05:26.336Z,63.50
2024-03-09T19:10:36.138Z,65.30
2024-03-09T19:15:43.975Z,58.40
2024-03-09T19:20:52.475Z,62.60
2024-03-09T19:26:02.504Z,64.70
2024-03-09T19:31:13.955Z,61.90
2024-03-09T19:36:21.514Z,58.80
2024-03-09T19:41:32.016Z,62.30
2024-03-09T19:46:39.481Z,55.20
2024-03-09T19:51:47.022Z,63.70
2024-03-09T19:56:56.471Z,63.70
2024-03-09T20:02:06.476Z,55.80
2024-03-09T20:07:15.940Z,67.70
2024-03-09T20:12:24.331Z,71.10
2024-03-09T20:17:32.292Z,66.10
2024-03-09T20:22:40.425Z,69.90
2024-03-09T20:27:47.932Z,61.20
2024-03-09T20:32:55.377Z,69.20
2024-03-09T20:38:04.383Z,71.70
2024-03-09T20:43:12.942Z,62.50
2024-03-09T20:48:21.193Z,66.00
2024-03-09T20:53:48.303Z,77.30
2024-03-09T20:58:59.509Z,72.50
2024-03-09T21:04:10.046Z,69.10
2024-03-09T21:09:25.784Z,62.90
2024-03-09T21:14:36.842Z,61.40
2024-03-09T21:19:44.487Z,63.10
2024-03-09T21:24:54.038Z,62.00
2024-03-09T21:30:01.741Z,62.60
2024-03-09T21:35:16.562Z,65.50
2024-03-09T21:40:27.235Z,69.60
2024-03-09T21:45:38.016Z,77.70
2024-03-09T21:57:05.942Z,71.40
2024-03-09T22:02:38.496Z,68.70
2024-03-09T23:15:20.587Z,59.70
2024-03-09T23:40:22.664Z,64.90
2024-03-09T23:46:23.237Z,64.20
2024-03-09T23:52:16.956Z,57.70
2024-03-09T23:58:40.714Z,68.40
